TSC435 LFML-CYUL
Flight info
| Callsign | TSC435 |
|---|---|
| Flight time | N/A |
| Altitude | 32000 |
| Route | FJR DCT FISTO DCT MIRBA DCT TEPRA DCT GAPLI DCT LIMRI/M078F340 NATF JOOPY/N0446F360 DCT SATIP Q907 MIILS DCT KEBIG ROCKT3 |
| Aircraft | A21N/M-SDE3FGHIRWY/LB1 |
Departure
| Time | 2026-04-29 11:26 |
|---|---|
| Airport | Marseille Provence Airport (LFML) |
Arrival
| Time | N/A |
|---|---|
| Airport | Montreal / Pierre Elliott Trudeau International Airport (CYUL) |
| Time | Latitude | Longitude | Altitude | Speed | Heading |
|---|---|---|---|---|---|
| 2026-04-29 10:40 | 43.44055 | 5.22084 | 34 ft | 0 kts | 50° |
| 2026-04-29 11:11 | 43.44054 | 5.22082 | 34 ft | 1 kts | 51° |
| 2026-04-29 11:12 | 43.44044 | 5.22067 | 33 ft | 2 kts | 47° |
| 2026-04-29 11:12 | 43.44034 | 5.22052 | 33 ft | 2 kts | 49° |
| 2026-04-29 11:12 | 43.44025 | 5.22037 | 32 ft | 2 kts | 48° |
| 2026-04-29 11:12 | 43.44015 | 5.22021 | 32 ft | 2 kts | 49° |
| 2026-04-29 11:13 | 43.44009 | 5.22012 | 31 ft | 0 kts | 75° |
| 2026-04-29 11:13 | 43.44010 | 5.22003 | 31 ft | 1 kts | 136° |
| 2026-04-29 11:13 | 43.44021 | 5.21991 | 31 ft | 2 kts | 137° |
| 2026-04-29 11:13 | 43.44031 | 5.21977 | 30 ft | 2 kts | 133° |
| 2026-04-29 11:14 | 43.44041 | 5.21962 | 30 ft | 2 kts | 136° |
| 2026-04-29 11:14 | 43.44049 | 5.21952 | 30 ft | 0 kts | 134° |
| 2026-04-29 11:17 | 43.44041 | 5.21963 | 30 ft | 3 kts | 134° |
| 2026-04-29 11:17 | 43.44019 | 5.21983 | 30 ft | 4 kts | 166° |
| 2026-04-29 11:17 | 43.43991 | 5.21974 | 30 ft | 4 kts | 214° |
| 2026-04-29 11:18 | 43.43962 | 5.21940 | 30 ft | 6 kts | 222° |
| 2026-04-29 11:18 | 43.43930 | 5.21898 | 30 ft | 6 kts | 223° |
| 2026-04-29 11:18 | 43.43892 | 5.21859 | 30 ft | 7 kts | 192° |
| 2026-04-29 11:18 | 43.43854 | 5.21882 | 31 ft | 5 kts | 134° |
| 2026-04-29 11:19 | 43.43829 | 5.21917 | 32 ft | 6 kts | 134° |
| 2026-04-29 11:19 | 43.43793 | 5.21967 | 34 ft | 8 kts | 135° |
| 2026-04-29 11:19 | 43.43741 | 5.22025 | 36 ft | 10 kts | 148° |
| 2026-04-29 11:19 | 43.43666 | 5.22086 | 39 ft | 13 kts | 149° |
| 2026-04-29 11:20 | 43.43593 | 5.22144 | 43 ft | 10 kts | 150° |
| 2026-04-29 11:20 | 43.43540 | 5.22186 | 46 ft | 7 kts | 149° |
| 2026-04-29 11:20 | 43.43505 | 5.22214 | 48 ft | 5 kts | 149° |
| 2026-04-29 11:20 | 43.43463 | 5.22248 | 51 ft | 8 kts | 150° |
| 2026-04-29 11:21 | 43.43400 | 5.22283 | 53 ft | 11 kts | 163° |
| 2026-04-29 11:21 | 43.43330 | 5.22329 | 56 ft | 10 kts | 138° |
| 2026-04-29 11:21 | 43.43280 | 5.22397 | 59 ft | 10 kts | 135° |
| 2026-04-29 11:21 | 43.43223 | 5.22476 | 61 ft | 12 kts | 134° |
| 2026-04-29 11:22 | 43.43160 | 5.22566 | 64 ft | 13 kts | 133° |
| 2026-04-29 11:22 | 43.43102 | 5.22649 | 67 ft | 11 kts | 134° |
| 2026-04-29 11:22 | 43.43055 | 5.22715 | 70 ft | 8 kts | 134° |
| 2026-04-29 11:22 | 43.43024 | 5.22759 | 72 ft | 4 kts | 134° |
| 2026-04-29 11:23 | 43.43008 | 5.22782 | 73 ft | 2 kts | 133° |
| 2026-04-29 11:23 | 43.42990 | 5.22809 | 75 ft | 5 kts | 133° |
| 2026-04-29 11:23 | 43.42954 | 5.22861 | 77 ft | 8 kts | 134° |
| 2026-04-29 11:23 | 43.42919 | 5.22909 | 79 ft | 6 kts | 133° |
| 2026-04-29 11:24 | 43.42892 | 5.22944 | 80 ft | 5 kts | 144° |
| 2026-04-29 11:24 | 43.42846 | 5.22964 | 81 ft | 8 kts | 181° |
| 2026-04-29 11:24 | 43.42818 | 5.22945 | 80 ft | 0 kts | 221° |
| 2026-04-29 11:24 | 43.42809 | 5.22934 | 80 ft | 3 kts | 220° |
| 2026-04-29 11:25 | 43.42778 | 5.22897 | 79 ft | 8 kts | 223° |
| 2026-04-29 11:25 | 43.42759 | 5.22818 | 77 ft | 10 kts | 283° |
| 2026-04-29 11:25 | 43.42809 | 5.22728 | 74 ft | 14 kts | 314° |
| 2026-04-29 11:25 | 43.42939 | 5.22543 | 68 ft | 59 kts | 314° |
| 2026-04-29 11:26 | 43.43818 | 5.21293 | 29 ft | 160 kts | 314° |
| 2026-04-29 11:26 | 43.44730 | 5.19994 | 247 ft | 189 kts | 311° |
| 2026-04-29 11:26 | 43.45620 | 5.18629 | 789 ft | 197 kts | 311° |
| 2026-04-29 11:27 | 43.46446 | 5.17394 | 1342 ft | 203 kts | 314° |
| 2026-04-29 11:27 | 43.47281 | 5.16127 | 1745 ft | 210 kts | 306° |
| 2026-04-29 11:27 | 43.47733 | 5.14309 | 1961 ft | 220 kts | 265° |
| 2026-04-29 11:27 | 43.47256 | 5.12393 | 2210 ft | 223 kts | 228° |
| 2026-04-29 11:28 | 43.47106 | 5.12146 | 2256 ft | 223 kts | 222° |